createdAt,value
2019-03-10T00:01:24.347Z,99.90
2019-03-10T00:03:54.351Z,99.90
2019-03-10T00:06:24.528Z,99.90
2019-03-10T00:08:54.489Z,99.90
2019-03-10T00:11:24.442Z,99.90
2019-03-10T00:13:54.395Z,99.90
2019-03-10T00:16:24.393Z,99.90
2019-03-10T00:18:54.275Z,99.90
2019-03-10T00:21:24.182Z,99.90
2019-03-10T00:23:54.301Z,99.90
2019-03-10T00:26:24.181Z,99.90
2019-03-10T00:28:54.126Z,99.90
2019-03-10T00:31:24.136Z,99.90
2019-03-10T00:33:54.109Z,99.90
2019-03-10T00:36:24.119Z,99.90
2019-03-10T00:39:12.821Z,99.90
2019-03-10T00:42:12.686Z,99.90
2019-03-10T00:45:31.002Z,99.90
2019-03-10T00:48:56.612Z,99.90
2019-03-10T00:52:05.501Z,99.90
2019-03-10T00:54:35.395Z,99.90
2019-03-10T00:57:05.454Z,99.90
2019-03-10T00:59:35.449Z,99.90
2019-03-10T01:02:05.523Z,99.90
2019-03-10T01:04:35.420Z,99.90
2019-03-10T01:07:05.503Z,99.90
2019-03-10T01:09:35.516Z,99.90
2019-03-10T01:12:05.601Z,99.90
2019-03-10T01:14:35.455Z,99.90
2019-03-10T01:17:05.446Z,99.90
2019-03-10T01:19:37.715Z,99.90
2019-03-10T01:22:07.579Z,99.90
2019-03-10T01:24:37.489Z,99.90
2019-03-10T01:27:07.412Z,99.90
2019-03-10T01:29:37.251Z,99.90
2019-03-10T01:32:34.144Z,99.90
2019-03-10T01:35:07.623Z,99.90
2019-03-10T01:37:37.548Z,99.90
2019-03-10T01:40:07.791Z,99.90
2019-03-10T01:42:37.647Z,99.90
2019-03-10T01:45:09.092Z,99.90
2019-03-10T01:47:39.095Z,99.90
2019-03-10T01:50:10.609Z,99.90
2019-03-10T01:52:40.511Z,99.90
2019-03-10T01:55:10.968Z,99.90
2019-03-10T01:57:40.862Z,99.90
2019-03-10T02:00:14.112Z,99.90
2019-03-10T02:02:43.973Z,99.90
2019-03-10T02:05:14.042Z,99.90
2019-03-10T02:07:44.128Z,99.90
2019-03-10T02:10:14.216Z,99.90
2019-03-10T02:12:44.074Z,99.90
2019-03-10T02:15:15.553Z,99.90
2019-03-10T02:17:45.431Z,99.90
2019-03-10T02:20:17.248Z,99.90
2019-03-10T02:22:47.124Z,99.90
2019-03-10T02:25:17.159Z,99.90
2019-03-10T02:27:47.171Z,99.90
2019-03-10T02:30:19.279Z,99.90
2019-03-10T02:32:49.155Z,99.90
2019-03-10T02:35:18.982Z,99.90
2019-03-10T02:37:48.895Z,99.90
2019-03-10T02:40:18.781Z,99.90
2019-03-10T02:42:48.645Z,99.90
2019-03-10T02:45:18.576Z,99.90
2019-03-10T02:47:48.450Z,99.90
2019-03-10T02:50:18.408Z,99.90
2019-03-10T02:52:48.385Z,99.90
2019-03-10T02:55:18.238Z,99.90
2019-03-10T02:57:48.266Z,99.90
2019-03-10T03:00:18.281Z,99.90
2019-03-10T03:02:48.137Z,99.90
2019-03-10T03:05:18.037Z,99.90
2019-03-10T03:07:48.030Z,99.90
2019-03-10T03:10:17.990Z,99.90
2019-03-10T03:12:47.865Z,99.90
2019-03-10T03:15:17.754Z,99.90
2019-03-10T03:17:47.598Z,99.90
2019-03-10T03:20:17.506Z,99.90
2019-03-10T03:22:47.435Z,99.90
2019-03-10T03:25:17.397Z,99.90
2019-03-10T03:27:47.272Z,99.90
2019-03-10T03:30:18.212Z,99.90
2019-03-10T03:32:48.102Z,99.90
2019-03-10T03:35:46.781Z,99.90
2019-03-10T03:38:17.794Z,99.90
2019-03-10T03:40:50.838Z,99.90
2019-03-10T03:43:20.771Z,99.90
2019-03-10T03:45:50.631Z,99.90
2019-03-10T03:48:20.602Z,99.90
2019-03-10T03:50:50.452Z,99.90
2019-03-10T03:53:20.317Z,99.90
2019-03-10T03:55:50.236Z,99.90
2019-03-10T03:58:20.081Z,99.90
2019-03-10T04:00:53.558Z,99.90
2019-03-10T04:03:23.440Z,99.90
2019-03-10T04:05:53.335Z,99.90
2019-03-10T04:08:23.238Z,99.90
2019-03-10T04:10:53.117Z,99.90
2019-03-10T04:13:22.952Z,99.90
2019-03-10T04:15:52.968Z,99.90
2019-03-10T04:18:22.846Z,99.90
2019-03-10T04:20:52.797Z,99.90
2019-03-10T04:23:22.709Z,99.90
2019-03-10T04:25:52.577Z,99.90
2019-03-10T04:28:22.461Z,99.90
2019-03-10T04:30:52.439Z,99.90
2019-03-10T04:33:22.329Z,99.90
2019-03-10T04:35:52.224Z,99.90
2019-03-10T04:38:22.126Z,99.90
2019-03-10T04:40:52.080Z,99.90
2019-03-10T04:43:21.940Z,99.90
2019-03-10T04:45:51.844Z,99.90
2019-03-10T04:48:21.725Z,99.90
2019-03-10T04:50:51.632Z,99.90
2019-03-10T04:53:21.495Z,99.90
2019-03-10T04:55:59.751Z,99.90
2019-03-10T04:58:29.775Z,99.90
2019-03-10T05:01:00.183Z,99.90
2019-03-10T05:03:30.055Z,99.90
2019-03-10T05:05:59.970Z,99.90
2019-03-10T05:08:29.828Z,99.90
2019-03-10T05:10:59.723Z,99.90
2019-03-10T05:13:29.619Z,99.90
2019-03-10T05:15:59.523Z,99.90
2019-03-10T05:18:29.398Z,99.90
2019-03-10T05:20:59.318Z,99.90
2019-03-10T05:23:31.300Z,99.90
2019-03-10T05:26:01.295Z,99.90
2019-03-10T05:28:32.486Z,99.90
2019-03-10T05:31:02.377Z,99.90
2019-03-10T05:33:33.206Z,99.90
2019-03-10T05:36:03.110Z,99.90
2019-03-10T05:38:32.985Z,99.90
2019-03-10T05:41:02.976Z,99.90
2019-03-10T05:43:32.850Z,99.90
2019-03-10T05:46:02.872Z,99.90
2019-03-10T05:48:32.877Z,99.90
2019-03-10T05:51:02.726Z,99.90
2019-03-10T05:53:32.594Z,99.90
2019-03-10T05:56:02.528Z,99.90
2019-03-10T05:58:32.390Z,99.90
2019-03-10T06:01:02.259Z,99.90
2019-03-10T06:03:32.190Z,99.90
2019-03-10T06:06:02.053Z,99.90
2019-03-10T06:08:31.903Z,99.90
2019-03-10T06:11:01.818Z,99.90
2019-03-10T06:13:31.736Z,99.90
2019-03-10T06:16:01.735Z,99.90
2019-03-10T06:18:31.715Z,99.90
2019-03-10T06:21:01.594Z,99.90
2019-03-10T06:23:31.512Z,99.90
2019-03-10T06:26:01.415Z,99.90
2019-03-10T06:28:31.311Z,99.90
2019-03-10T06:31:01.204Z,99.90
2019-03-10T06:33:31.120Z,99.90
2019-03-10T06:36:01.103Z,99.90
2019-03-10T06:38:31.053Z,99.90
2019-03-10T06:41:00.911Z,99.90
2019-03-10T06:43:30.840Z,99.90
2019-03-10T06:46:00.690Z,99.90
2019-03-10T06:48:30.554Z,99.90
2019-03-10T06:51:00.446Z,99.90
2019-03-10T06:53:30.299Z,99.90
2019-03-10T06:56:00.182Z,99.90
2019-03-10T06:58:30.217Z,99.90
2019-03-10T07:01:00.179Z,99.90
2019-03-10T07:03:30.044Z,99.90
2019-03-10T07:05:59.952Z,99.90
2019-03-10T07:08:29.837Z,99.90
2019-03-10T07:10:59.738Z,99.90
2019-03-10T07:13:29.588Z,99.90
2019-03-10T07:15:59.497Z,99.90
2019-03-10T07:18:29.393Z,99.90
2019-03-10T07:21:00.290Z,99.90
2019-03-10T07:23:30.373Z,99.90
2019-03-10T07:26:06.675Z,99.90
2019-03-10T07:29:02.522Z,99.90
2019-03-10T07:31:48.676Z,99.90
2019-03-10T07:34:46.423Z,99.90
2019-03-10T07:37:35.174Z,99.90
2019-03-10T07:40:42.897Z,99.90
2019-03-10T07:43:31.778Z,99.90
2019-03-10T07:46:20.599Z,99.90
2019-03-10T07:49:12.283Z,99.90
2019-03-10T07:52:01.261Z,99.90
2019-03-10T07:54:42.190Z,99.90
2019-03-10T07:57:39.773Z,99.90
2019-03-10T08:00:19.918Z,99.90
2019-03-10T08:03:14.696Z,99.90
2019-03-10T08:06:09.275Z,99.90
2019-03-10T08:09:00.821Z,99.90
2019-03-10T08:11:47.925Z,99.90
2019-03-10T08:14:32.975Z,99.60
2019-03-10T08:17:10.019Z,99.90
2019-03-10T08:19:57.175Z,99.40
2019-03-10T08:22:47.700Z,99.60
2019-03-10T08:25:35.714Z,99.90
2019-03-10T08:28:28.339Z,99.90
2019-03-10T08:31:17.631Z,98.80
2019-03-10T08:34:09.151Z,97.80
2019-03-10T08:36:57.884Z,98.20
2019-03-10T08:39:37.237Z,96.60
2019-03-10T08:42:28.877Z,95.50
2019-03-10T08:45:16.545Z,95.50
2019-03-10T08:48:04.159Z,96.50
2019-03-10T08:50:41.593Z,96.40
2019-03-10T08:53:22.772Z,96.60
2019-03-10T08:56:13.773Z,95.00
2019-03-10T08:59:04.319Z,95.00
2019-03-10T09:01:45.122Z,96.30
2019-03-10T09:04:51.916Z,95.90
2019-03-10T09:07:39.292Z,95.00
2019-03-10T09:10:17.276Z,95.70
2019-03-10T09:13:15.111Z,95.10
2019-03-10T09:16:02.367Z,94.10
2019-03-10T09:18:52.369Z,93.90
2019-03-10T09:21:29.548Z,93.80
2019-03-10T09:24:24.085Z,93.60
2019-03-10T09:27:21.911Z,93.20
2019-03-10T09:30:10.744Z,93.70
2019-03-10T09:33:08.352Z,92.20
2019-03-10T09:35:56.156Z,92.60
2019-03-10T09:38:41.383Z,93.30
2019-03-10T09:41:39.252Z,93.50
2019-03-10T09:44:28.053Z,93.20
2019-03-10T09:47:22.793Z,93.90
2019-03-10T09:50:14.551Z,94.10
2019-03-10T09:53:02.142Z,94.40
2019-03-10T09:55:48.304Z,94.80
2019-03-10T09:58:32.047Z,94.80
2019-03-10T10:01:19.616Z,94.70
2019-03-10T10:03:58.143Z,94.00
2019-03-10T10:06:58.989Z,94.40
2019-03-10T10:09:38.055Z,94.70
2019-03-10T10:12:25.881Z,95.10
2019-03-10T10:15:17.234Z,95.30
2019-03-10T10:18:09.029Z,95.60
2019-03-10T10:20:51.639Z,95.80
2019-03-10T10:23:26.091Z,95.60
2019-03-10T10:26:29.960Z,95.60
2019-03-10T10:29:15.413Z,96.40
2019-03-10T10:32:09.927Z,95.50
2019-03-10T10:35:02.779Z,96.00
2019-03-10T10:37:44.316Z,96.30
2019-03-10T10:40:30.346Z,96.10
2019-03-10T10:43:22.246Z,96.10
2019-03-10T10:46:16.481Z,96.10
2019-03-10T10:49:03.466Z,96.10
2019-03-10T10:52:00.871Z,95.80
2019-03-10T10:54:49.641Z,96.40
2019-03-10T10:57:36.732Z,96.10
2019-03-10T11:00:19.117Z,96.00
2019-03-10T11:03:06.317Z,96.40
2019-03-10T11:05:46.659Z,96.70
2019-03-10T11:08:34.032Z,96.40
2019-03-10T11:11:31.584Z,96.60
2019-03-10T11:14:20.543Z,96.70
2019-03-10T11:17:19.849Z,96.30
2019-03-10T11:20:14.327Z,96.10
2019-03-10T11:23:18.339Z,95.20
2019-03-10T11:26:08.439Z,94.70
2019-03-10T11:29:12.523Z,94.70
2019-03-10T11:32:19.901Z,94.70
2019-03-10T11:35:03.534Z,92.40
2019-03-10T11:38:07.149Z,92.00
2019-03-10T11:40:58.646Z,89.90
2019-03-10T11:43:43.745Z,88.70
2019-03-10T11:46:35.160Z,88.20
2019-03-10T11:49:29.468Z,87.40
2019-03-10T11:52:06.307Z,87.20
2019-03-10T11:55:00.879Z,87.80
2019-03-10T11:57:53.180Z,88.50
2019-03-10T12:00:44.678Z,88.00
2019-03-10T12:03:42.130Z,87.50
2019-03-10T12:06:25.565Z,86.40
2019-03-10T12:09:14.345Z,86.70
2019-03-10T12:11:44.385Z,88.00
2019-03-10T12:14:14.314Z,86.60
2019-03-10T12:16:44.282Z,87.20
2019-03-10T12:19:14.219Z,86.60
2019-03-10T12:21:44.104Z,87.00
2019-03-10T12:24:14.006Z,86.50
2019-03-10T12:26:44.525Z,89.20
2019-03-10T12:29:15.963Z,86.80
2019-03-10T12:31:45.855Z,85.80
2019-03-10T12:34:15.893Z,87.20
2019-03-10T12:36:45.878Z,86.10
2019-03-10T12:39:17.180Z,86.80
2019-03-10T12:41:57.581Z,86.80
2019-03-10T12:44:20.187Z,85.70
2019-03-10T12:46:50.065Z,86.10
2019-03-10T12:49:21.590Z,84.20
2019-03-10T12:51:51.671Z,83.50
2019-03-10T12:54:21.756Z,84.40
2019-03-10T12:56:53.181Z,81.40
2019-03-10T12:59:23.193Z,81.90
2019-03-10T13:01:53.120Z,79.80
2019-03-10T13:04:23.178Z,81.40
2019-03-10T13:06:53.099Z,82.20
2019-03-10T13:09:23.208Z,82.50
2019-03-10T13:11:53.839Z,84.60
2019-03-10T13:14:23.797Z,85.40
2019-03-10T13:16:53.740Z,86.10
2019-03-10T13:19:23.615Z,87.10
2019-03-10T13:21:53.537Z,84.80
2019-03-10T13:24:23.429Z,86.80
2019-03-10T13:26:54.480Z,83.30
2019-03-10T13:29:26.169Z,85.00
2019-03-10T13:31:57.512Z,85.50
2019-03-10T13:34:27.413Z,85.30
2019-03-10T13:36:57.330Z,86.00
2019-03-10T13:39:27.789Z,87.60
2019-03-10T13:41:57.705Z,87.70
2019-03-10T13:44:27.723Z,86.80
2019-03-10T13:46:57.629Z,85.30
2019-03-10T13:49:27.571Z,84.40
2019-03-10T13:51:59.260Z,83.70
2019-03-10T13:54:29.803Z,83.60
2019-03-10T13:56:59.797Z,81.30
2019-03-10T13:59:29.735Z,83.00
2019-03-10T14:01:59.604Z,81.50
2019-03-10T14:04:29.519Z,80.10
2019-03-10T14:06:59.374Z,80.80
2019-03-10T14:09:29.316Z,79.70
2019-03-10T14:11:59.259Z,79.80
2019-03-10T14:14:29.132Z,80.30
2019-03-10T14:16:58.966Z,81.20
2019-03-10T14:19:28.895Z,80.10
2019-03-10T14:21:58.797Z,81.30
2019-03-10T14:24:28.700Z,81.00
2019-03-10T14:26:58.671Z,81.80
2019-03-10T14:29:28.597Z,82.80
2019-03-10T14:31:58.447Z,82.40
2019-03-10T14:34:28.387Z,81.90
2019-03-10T14:36:58.268Z,82.10
2019-03-10T14:39:28.194Z,77.20
2019-03-10T14:41:58.086Z,80.60
2019-03-10T14:44:27.953Z,81.40
2019-03-10T14:46:57.901Z,82.00
2019-03-10T14:49:27.789Z,81.30
2019-03-10T14:51:57.707Z,82.10
2019-03-10T14:54:27.558Z,83.10
2019-03-10T14:56:57.436Z,84.60
2019-03-10T14:59:27.776Z,83.60
2019-03-10T15:02:00.116Z,83.80
2019-03-10T15:04:29.200Z,84.80
2019-03-10T15:06:59.068Z,82.80
2019-03-10T15:09:28.954Z,83.80
2019-03-10T15:11:58.859Z,84.40
2019-03-10T15:14:28.750Z,87.00
2019-03-10T15:17:01.794Z,86.60
2019-03-10T15:19:30.313Z,87.20
2019-03-10T15:22:00.233Z,85.40
2019-03-10T15:24:30.143Z,86.60
2019-03-10T15:27:00.088Z,87.50
2019-03-10T15:29:31.549Z,87.60
2019-03-10T15:32:01.425Z,89.60
2019-03-10T15:34:31.299Z,90.50
2019-03-10T15:37:01.252Z,90.40
2019-03-10T15:39:31.218Z,89.30
2019-03-10T15:42:01.083Z,89.90
2019-03-10T15:44:31.099Z,89.00
2019-03-10T15:47:00.944Z,89.70
2019-03-10T15:49:30.973Z,90.80
2019-03-10T15:52:00.888Z,90.20
2019-03-10T15:54:30.822Z,90.80
2019-03-10T15:57:00.690Z,88.30
2019-03-10T15:59:30.657Z,90.40
2019-03-10T16:02:02.976Z,90.70
2019-03-10T16:04:32.932Z,89.70
2019-03-10T16:07:02.846Z,89.90
2019-03-10T16:09:33.511Z,89.50
2019-03-10T16:12:05.436Z,89.20
2019-03-10T16:14:35.335Z,88.90
2019-03-10T16:17:05.442Z,88.50
2019-03-10T16:19:35.377Z,89.30
2019-03-10T16:22:05.231Z,88.80
2019-03-10T16:24:35.132Z,89.40
2019-03-10T16:27:05.107Z,89.20
2019-03-10T16:29:35.138Z,90.20
2019-03-10T16:32:05.033Z,89.30
2019-03-10T16:34:40.594Z,89.10
2019-03-10T16:37:06.447Z,90.50
2019-03-10T16:39:36.317Z,92.60
2019-03-10T16:42:06.381Z,93.10
2019-03-10T16:44:36.285Z,93.20
2019-03-10T16:47:06.287Z,92.60
2019-03-10T16:49:36.152Z,92.50
2019-03-10T16:52:06.039Z,92.70
2019-03-10T16:54:35.950Z,93.10
2019-03-10T16:57:06.002Z,93.00
2019-03-10T16:59:36.401Z,93.80
2019-03-10T17:02:06.381Z,94.20
2019-03-10T17:04:36.264Z,94.60
2019-03-10T17:07:06.286Z,94.20
2019-03-10T17:09:36.178Z,95.70
2019-03-10T17:12:06.199Z,95.30
2019-03-10T17:14:36.071Z,97.50
2019-03-10T17:17:06.017Z,98.50
2019-03-10T17:19:35.869Z,98.50
2019-03-10T17:22:05.886Z,99.90
2019-03-10T17:24:35.758Z,99.90
2019-03-10T17:27:05.873Z,99.90
2019-03-10T17:29:35.732Z,99.90
2019-03-10T17:32:05.804Z,99.90
2019-03-10T17:34:35.730Z,99.90
2019-03-10T17:37:07.939Z,99.90
2019-03-10T17:39:37.888Z,99.90
2019-03-10T17:42:15.638Z,99.90
2019-03-10T17:44:46.961Z,99.90
2019-03-10T17:47:16.864Z,99.90
2019-03-10T17:49:46.804Z,99.90
2019-03-10T17:52:16.756Z,99.90
2019-03-10T17:54:46.666Z,99.90
2019-03-10T17:57:16.765Z,99.90
2019-03-10T17:59:46.656Z,99.90
2019-03-10T18:02:17.507Z,99.90
2019-03-10T18:04:47.443Z,99.90
2019-03-10T18:07:17.376Z,99.90
2019-03-10T18:09:47.251Z,99.90
2019-03-10T18:12:17.140Z,99.90
2019-03-10T18:14:47.054Z,99.90
2019-03-10T18:17:17.299Z,99.90
2019-03-10T18:19:47.191Z,99.90
2019-03-10T18:22:17.211Z,99.90
2019-03-10T18:24:49.116Z,99.90
2019-03-10T18:27:19.468Z,99.90
2019-03-10T18:29:49.347Z,99.90
2019-03-10T18:32:19.293Z,99.90
2019-03-10T18:34:49.165Z,99.90
2019-03-10T18:37:19.161Z,99.90
2019-03-10T18:39:49.075Z,99.90
2019-03-10T18:42:19.739Z,99.90
2019-03-10T18:44:50.616Z,99.90
2019-03-10T18:47:20.564Z,99.90
2019-03-10T18:49:50.510Z,99.90
2019-03-10T18:52:20.444Z,99.90
2019-03-10T18:54:50.475Z,99.90
2019-03-10T18:57:20.490Z,99.90
2019-03-10T18:59:50.790Z,99.90
2019-03-10T19:02:20.737Z,99.90
2019-03-10T19:04:51.398Z,99.90
2019-03-10T19:07:21.488Z,99.90
2019-03-10T19:09:51.692Z,99.90
2019-03-10T19:12:21.625Z,99.90
2019-03-10T19:14:51.796Z,99.90
2019-03-10T19:17:22.329Z,99.90
2019-03-10T19:19:52.252Z,99.90
2019-03-10T19:22:23.588Z,99.90
2019-03-10T19:24:53.523Z,99.90
2019-03-10T19:27:30.155Z,99.90
2019-03-10T19:29:55.123Z,99.90
2019-03-10T19:32:25.153Z,99.90
2019-03-10T19:34:57.501Z,99.90
2019-03-10T19:37:51.783Z,99.90
2019-03-10T19:40:22.114Z,99.90
2019-03-10T19:42:52.073Z,99.90
2019-03-10T19:45:22.044Z,99.90
2019-03-10T19:47:51.920Z,99.90
2019-03-10T19:50:21.862Z,99.90
2019-03-10T19:52:51.771Z,99.90
2019-03-10T19:55:22.331Z,99.90
2019-03-10T19:57:52.384Z,99.90
2019-03-10T20:00:22.274Z,99.90
2019-03-10T20:02:52.271Z,99.90
2019-03-10T20:05:22.217Z,99.90
2019-03-10T20:07:52.095Z,99.90
2019-03-10T20:10:21.955Z,99.90
2019-03-10T20:12:51.993Z,99.90
2019-03-10T20:15:21.982Z,99.90
2019-03-10T20:17:52.025Z,99.90
2019-03-10T20:20:21.941Z,99.90
2019-03-10T20:22:51.891Z,99.90
2019-03-10T20:25:22.237Z,99.90
2019-03-10T20:27:52.143Z,99.90
2019-03-10T20:30:22.275Z,99.90
2019-03-10T20:32:52.129Z,99.90
2019-03-10T20:35:22.048Z,99.90
2019-03-10T20:37:52.111Z,99.90
2019-03-10T20:40:22.043Z,99.90
2019-03-10T20:42:52.046Z,99.90
2019-03-10T20:45:24.344Z,99.90
2019-03-10T20:47:56.093Z,99.90
2019-03-10T20:50:24.991Z,99.90
2019-03-10T20:52:55.095Z,99.90
2019-03-10T20:55:25.037Z,99.90
2019-03-10T20:57:54.971Z,99.90
2019-03-10T21:00:25.018Z,99.90
2019-03-10T21:02:55.473Z,99.90
2019-03-10T21:05:27.405Z,99.90
2019-03-10T21:07:57.047Z,99.90
2019-03-10T21:10:26.969Z,99.90
2019-03-10T21:12:56.867Z,99.90
2019-03-10T21:15:26.957Z,99.90
2019-03-10T21:17:57.039Z,99.90
2019-03-10T21:20:29.813Z,99.90
2019-03-10T21:23:02.041Z,99.90
2019-03-10T21:25:32.160Z,99.90
2019-03-10T21:28:02.037Z,99.90
2019-03-10T21:30:32.104Z,99.90
2019-03-10T21:33:02.111Z,99.90
2019-03-10T21:35:33.618Z,99.90
2019-03-10T21:38:03.828Z,99.90
2019-03-10T21:40:33.748Z,99.90
2019-03-10T21:43:03.713Z,99.90
2019-03-10T21:45:33.658Z,99.90
2019-03-10T21:48:03.962Z,99.90
2019-03-10T21:50:33.809Z,99.90
2019-03-10T21:53:03.684Z,99.90
2019-03-10T21:55:33.647Z,99.90
2019-03-10T21:58:03.520Z,99.90
2019-03-10T22:00:34.749Z,99.90
2019-03-10T22:03:05.263Z,99.90
2019-03-10T22:05:35.131Z,99.90
2019-03-10T22:08:05.016Z,99.90
2019-03-10T22:10:35.058Z,99.90
2019-03-10T22:13:04.934Z,99.90
2019-03-10T22:15:41.621Z,99.90
2019-03-10T22:18:06.489Z,99.90
2019-03-10T22:20:36.890Z,99.90
2019-03-10T22:23:06.798Z,99.90
2019-03-10T22:25:36.666Z,99.90
2019-03-10T22:28:06.565Z,99.90
2019-03-10T22:30:36.575Z,99.90
2019-03-10T22:33:06.434Z,99.90
2019-03-10T22:35:36.368Z,99.90
2019-03-10T22:38:06.418Z,99.90
2019-03-10T22:40:36.316Z,99.90
2019-03-10T22:43:06.207Z,99.90
2019-03-10T22:45:36.102Z,99.90
2019-03-10T22:48:06.018Z,99.90
2019-03-10T22:50:35.905Z,99.90
2019-03-10T22:53:05.783Z,99.90
2019-03-10T22:55:35.688Z,99.90
2019-03-10T22:58:05.576Z,99.90
2019-03-10T23:00:44.826Z,99.90
2019-03-10T23:03:14.939Z,99.90
2019-03-10T23:05:44.870Z,99.90
2019-03-10T23:08:14.738Z,99.90
2019-03-10T23:10:44.683Z,99.90
2019-03-10T23:13:14.616Z,99.90
2019-03-10T23:15:44.631Z,99.90
2019-03-10T23:18:14.501Z,99.90
2019-03-10T23:20:44.428Z,99.90
2019-03-10T23:23:14.401Z,99.90
2019-03-10T23:25:44.250Z,99.90
2019-03-10T23:28:14.322Z,99.90
2019-03-10T23:30:44.241Z,99.90
2019-03-10T23:33:14.095Z,99.90
2019-03-10T23:35:43.965Z,99.90
2019-03-10T23:38:13.909Z,99.90
2019-03-10T23:40:43.815Z,99.90
2019-03-10T23:43:14.056Z,99.90
2019-03-10T23:45:43.977Z,99.90
2019-03-10T23:48:13.866Z,99.90
2019-03-10T23:50:43.766Z,99.90
2019-03-10T23:53:13.676Z,99.90
2019-03-10T23:55:43.598Z,99.90
2019-03-10T23:58:13.476Z,99.90
